Barkley Regional Airport
KPAH : rendu visible

Aérodrome :











RETROUVEZ-NOUS SUR...

 
LOGIN :

S'inscrire | Disclaimer

   EN    FR    IT 

 









Légende :    VFR   VFR Marginal   IFR   IFR Intensif   IFR Très Intensif
Visi : 
Plafond : 
>= 8 km
>= 3000ft
5 à 8 km
1000 à 3000 ft
1500m à 5 km
500 à 1000 ft
800 à 1500m
200 à 500 ft
< 800m
< 200 ft
Symboles :   Orages  Brouillard  Fortes neiges  Fortes précipitations  Vent > 20 kt






- Altitude de l'aérodrome : 410 ft
- Code IATA : PAH


KPAH - Barkley Regional

DERNIER METAR :
  • 081153Z 25007KT 5SM BR BKN007 OVC013 21/19 A2978 RMK AO2 CIG 006V010 SLP081 T02060189 10211 20206 53002

METARs EXPIRÉS :
  • 081053Z 22007KT 6SM BR OVC006 21/19 A2977 RMK AO2 CIG 006V011 SLP076 T02060189
  • 080953Z AUTO 24009G17KT 6SM BR OVC008 21/19 A2977 RMK AO2 CIG 007V011 SLP077 T02110189

TAF KPAH
Valide du 08 à 12h jusqu'au 09 à 12h UTC


081122Z 0812/0912 24006KT 6SM BR OVC008
TEMPO 0812/0815 OVC014
FM081500 25006KT P6SM BKN040
FM090200 25020G30KT 3SM TSRA BKN010CB
FM090500 33016G29KT P6SM BKN035



MET'MAP, la Météo Aéronautique d'un coup d'oeil ! - Copyright ORBIFLY Décembre 2007 - Disclaimer

ORBIFLY MET'MAP TEAM :

Programmation & Développement : Alexandra Zaïnal
Sur une idée originale de : Baudouin d'Aumeries
Assistance à la programmation : Marc-Olivier Méhu
Soutien technique & logistique : Manuel Goepfert

Contact : metmap@orbifly.com




SOURCES & CREDITS :

   NOAA       Earth
Advisory